• Join FlightAware (Why Join?)
  • Login
  • US Flag GB Flag 
14:37 EST


 

Airport Tracker/Info


-or-


 

Live Flight TrackerFlight Track Log ✈ N682RW ✈ 14-May-2013 ✈ KMDW - KDTW

Flight Track Log - Related Links

Times and Time Zones

All times are in EDT time to prevent confusion due to time zone crossing. See the N682RW flight status page for this flight to view local times or setup timezone preferences in your user account.

Time Position Orientation Groundspeed Altitude Reporting Facility
EDT Latitude Longitude Course Direction KTS MPH feet Rate Location/Type
16:38 41.8333 -87.8167 349° North 277 319 2,900  Level Chicago TRACON
16:39 41.8500 -87.7333 75° East 262 302 2,900 360 Level Chicago TRACON
16:40 41.8167 -87.6333 114° Southeast 283 326 3,700 720 Climbing Chicago TRACON
16:40 41.8092 -87.6128 116° Southeast 273 314 3,900 2,280 Climbing Chicago Center
16:41 41.8044 -87.5072 93° East 288 331 6,700 3,120 Climbing Chicago Center
16:42 41.7953 -87.3936 96° East 304 350 10,400 2,940 Climbing Chicago Center
16:43 41.7822 -87.2622 98° East 350 403 12,800 2,820 Climbing Chicago Center
16:44 41.7650 -87.0914 98° East 386 444 16,300 2,820 Climbing Chicago Center
16:45 41.7636 -86.9325 91° East 433 498 18,700 1,260 Climbing Chicago Center
16:46 41.7658 -86.7683 89° East 442 509 19,000 120 Climbing Chicago Center
16:47 41.7661 -86.5992 90° East 451 519 19,000  Level Chicago Center
16:48 41.7667 -86.4350 90° East 445 512 19,000  Level Chicago Center
16:49 41.7719 -86.2706 87° East 444 511 19,000  Level Chicago Center
16:50 41.8067 -86.1147 73° East 435 501 19,000  Level Chicago Center
16:51 41.8444 -85.9258 75° East 437 503 19,000  Level Chicago Center
16:52 41.8756 -85.7669 75° East 438 504 19,000  Level Chicago Center
16:53 41.9061 -85.6072 76° East 438 504 19,000  Level Chicago Center
16:54 41.9364 -85.4464 76° East 439 505 19,000  Level Chicago Center
16:55 41.9667 -85.2858 76° East 440 506 19,000  Level Chicago Center
16:56 41.9808 -85.2233 73° East 430 495 19,000  Level Cleveland Center
16:57 42.0125 -85.0525 76° East 430 495 19,000  Level Cleveland Center
16:58 42.0417 -84.8922 76° East 430 495 19,000  Level Cleveland Center
16:59 42.0683 -84.7317 77° East 430 495 19,000 -660 Level Cleveland Center
17:00 42.0175 -84.5803 114° Southeast 413 475 17,700 -1,020 Descending Cleveland Center
17:01 41.9186 -84.4847 144° Southeast 394 453 17,000 -900 Descending Cleveland Center
17:01 41.8819 -84.3989 120° Southeast 444 511 16,300 -1,620 Descending Cleveland Center
17:02 41.8714 -84.3339 102° East 410 472 15,400 -2,700 Descending Cleveland Center
17:02 41.8636 -84.2556 98° East 431 496 13,900 -2,340 Descending Cleveland Center
17:03 41.8489 -84.1933 108° East 419 482 13,100 -1,920 Descending Cleveland Center
17:03 41.8350 -84.1033 102° East 411 473 12,000 -1,140 Descending Cleveland Center
17:04 41.8242 -84.0497 105° East 414 476 12,000  Level Cleveland Center
17:04 41.8353 -83.9583 81° East 364 419 12,000  Level Cleveland Center
17:05 41.8489 -83.9228 63° Northeast 373 429 12,000  Level Cleveland Center
17:05 41.9025 -83.8669 38° Northeast 342 394 12,000  Level Cleveland Center
17:06 41.9219 -83.8400 46° Northeast 316 364 12,000  Level Cleveland Center
17:06 41.9778 -83.7814 38° Northeast 348 400 12,000  Level Cleveland Center
17:07 41.9994 -83.7547 42° Northeast 334 384 12,000  Level Cleveland Center
17:07 42.0511 -83.6983 39° Northeast 350 403 12,000  Level Cleveland Center
17:08 42.0725 -83.6714 43° Northeast 334 384 12,000  Level Cleveland Center
17:08 42.1261 -83.6181 36° Northeast 351 404 12,000  Level Cleveland Center
17:09 42.1564 -83.5803 43° Northeast 346 398 12,000  Level Cleveland Center
17:09 42.1992 -83.5403 35° Northeast 273 314 12,000 -300 Level Cleveland Center
17:10 42.2164 -83.5158 46° Northeast 313 360 11,700 -1,500 Descending Cleveland Center
17:10 42.2589 -83.4897 24° Northeast 246 283 10,500 -1,200 Descending Cleveland Center
17:11 42.2758 -83.4708 40° Northeast 266 306 10,500 -1,800 Level Cleveland Center
17:12 42.3100 -83.4417 32° Northeast 234 269 8,700 -2,820 Descending Cleveland Center
17:13 42.3739 -83.3911 30° Northeast 242 278 5,900 -2,340 Descending Cleveland Center
17:14 42.4044 -83.3250 58° Northeast 229 264 4,000 -1,500 Descending Cleveland Center
17:15 42.3683 -83.2728 133° Southeast 194 223 2,900 -600 Descending Cleveland Center
17:16 42.3183 -83.2733 180° South 169 194 2,800 -480 Descending Cleveland Center
17:17 42.2739 -83.2939 199° South 164 189 2,000 -840 Descending Cleveland Center